Time;durP1;ratioP1;P1;durP2;ratioP2;P2;SDS_P1;SDS_P2;PMS_P1;PMS_P2;Temp;Humidity;BMP_temperature;BMP_pressure;BME280_temperature;BME280_humidity;BME280_pressure;Samples;Min_cycle;Max_cycle;Signal;HPM_P1;HPM_P2
2020/12/07 00:01:46;;;;;;;23.73;8.43;;;;;;;-3.27;72.87;101818.33;126797;1095;104563;-80
2020/12/07 00:04:15;;;;;;;20.08;7.17;;;;;;;-3.29;73.09;101810.46;126857;1095;104620;-80
2020/12/07 00:06:44;;;;;;;24.20;8.77;;;;;;;-3.29;73.63;101815.59;126888;1095;104608;-80
2020/12/07 00:09:13;;;;;;;21.70;7.40;;;;;;;-3.28;73.52;101816.50;126888;1095;104641;-80
2020/12/07 00:11:46;;;;;;;24.67;8.70;;;;;;;-3.34;72.99;101819.28;126853;1095;104503;-80
2020/12/07 00:14:15;;;;;;;25.53;9.03;;;;;;;-3.35;72.52;101820.05;126795;1095;104442;-80
2020/12/07 00:16:47;;;;;;;22.93;8.57;;;;;;;-3.36;72.93;101818.20;126861;1095;104454;-80
2020/12/07 00:19:19;;;;;;;22.40;7.03;;;;;;;-3.35;72.53;101808.84;126864;1095;104491;-78
2020/12/07 00:21:48;;;;;;;21.73;7.60;;;;;;;-3.35;73.24;101808.84;126811;1095;104602;-79
2020/12/07 00:24:17;;;;;;;25.67;9.10;;;;;;;-3.36;73.16;101810.50;126796;1095;104570;-79
2020/12/07 00:26:46;;;;;;;24.87;8.60;;;;;;;-3.38;73.50;101808.49;126779;1095;104507;-80
2020/12/07 00:29:17;;;;;;;24.77;7.47;;;;;;;-3.40;73.60;101812.55;126715;1095;104631;-79
2020/12/07 00:31:46;;;;;;;26.63;8.87;;;;;;;-3.43;72.57;101815.67;126812;1095;104631;-78
2020/12/07 00:34:19;;;;;;;24.30;9.60;;;;;;;-3.44;73.58;101819.91;126835;1095;104440;-80
2020/12/07 00:36:48;;;;;;;26.13;8.80;;;;;;;-3.38;73.70;101817.13;126820;1095;104664;-80
2020/12/07 00:39:17;;;;;;;27.77;9.93;;;;;;;-3.35;73.17;101814.91;126751;1095;104439;-78
2020/12/07 00:41:45;;;;;;;24.47;8.87;;;;;;;-3.32;72.87;101807.55;126801;1095;104558;-80
2020/12/07 00:44:14;;;;;;;28.67;10.07;;;;;;;-3.28;73.25;101814.83;126825;1095;104490;-80
2020/12/07 00:46:43;;;;;;;23.47;8.07;;;;;;;-3.23;73.40;101819.58;126802;1094;104500;-80
2020/12/07 00:49:12;;;;;;;27.80;9.80;;;;;;;-3.21;73.28;101812.95;126854;1095;104615;-78
2020/12/07 00:51:41;;;;;;;27.57;9.07;;;;;;;-3.22;72.87;101814.62;126843;1095;104651;-80
2020/12/07 00:54:12;;;;;;;21.63;8.47;;;;;;;-3.20;73.73;101815.69;126825;1095;104452;-79
2020/12/07 00:56:41;;;;;;;30.27;10.30;;;;;;;-3.18;72.65;101810.72;126777;1095;104622;-80
2020/12/07 00:59:11;;;;;;;28.30;9.63;;;;;;;-3.13;73.83;101812.14;126842;1095;104621;-80
2020/12/07 01:01:41;;;;;;;29.40;10.47;;;;;;;-3.08;73.29;101819.63;126846;1095;104596;-80
2020/12/07 01:08:05;;;;;;;20.13;7.57;;;;;;;-3.01;73.08;101810.93;126703;1098;104583;-80
2020/12/07 01:10:37;;;;;;;25.37;9.43;;;;;;;-3.01;72.55;101817.73;126460;1097;104503;-79
2020/12/07 01:13:06;;;;;;;25.50;8.63;;;;;;;-3.00;73.78;101810.20;126556;1097;104691;-80
2020/12/07 01:15:36;;;;;;;26.43;9.90;;;;;;;-2.99;73.46;101803.40;126528;1098;104787;-79
2020/12/07 01:18:06;;;;;;;26.57;9.80;;;;;;;-2.98;73.25;101801.00;126498;1097;104618;-80
2020/12/07 01:20:36;;;;;;;24.47;9.23;;;;;;;-2.96;73.63;101794.39;126551;1098;104445;-78
2020/12/07 01:23:04;;;;;;;28.27;10.77;;;;;;;-2.95;73.54;101801.34;126507;1097;104628;-80
2020/12/07 01:25:37;;;;;;;26.97;9.87;;;;;;;-2.90;72.76;101804.41;126508;1097;104493;-80
2020/12/07 01:35:13;;;;;;;26.07;8.43;;;;;;;-2.92;73.34;101790.50;126558;1098;104552;-79
2020/12/07 01:37:43;;;;;;;22.97;8.60;;;;;;;-2.93;73.49;101789.59;126523;1098;104509;-79
2020/12/07 01:40:14;;;;;;;27.10;9.93;;;;;;;-2.97;72.65;101794.23;126522;1095;104442;-79
2020/12/07 01:42:43;;;;;;;25.27;9.47;;;;;;;-2.96;73.54;101789.26;126788;1095;104596;-80
2020/12/07 01:45:16;;;;;;;26.77;9.47;;;;;;;-2.93;73.44;101796.37;126794;1095;104620;-80
2020/12/07 01:47:48;;;;;;;28.00;10.20;;;;;;;-2.94;73.29;101787.76;126859;1095;104443;-80
2020/12/07 01:50:18;;;;;;;28.37;8.57;;;;;;;-2.90;73.15;101787.37;126882;1095;104625;-80
2020/12/07 01:52:47;;;;;;;27.93;9.43;;;;;;;-2.90;72.99;101789.94;126899;1096;104595;-79
2020/12/07 01:55:17;;;;;;;27.87;9.67;;;;;;;-2.92;73.06;101785.36;126826;1096;104605;-80
2020/12/07 01:58:03;;;;;;;26.83;9.50;;;;;;;-2.91;73.36;101787.20;127133;1092;104525;-78
2020/12/07 02:00:34;;;;;;;25.60;9.27;;;;;;;-2.92;72.93;101787.93;127399;1092;104464;-79
2020/12/07 02:03:09;;;;;;;29.35;10.05;;;;;;;-2.92;73.30;101793.97;127352;1092;104494;-80
2020/12/07 02:05:40;;;;;;;28.40;9.50;;;;;;;-2.89;73.37;101798.55;127349;1092;104436;-80
2020/12/07 02:08:13;;;;;;;24.77;8.45;;;;;;;-2.90;72.64;101799.27;126972;1093;104442;-79
2020/12/07 02:10:47;;;;;;;29.53;10.07;;;;;;;-2.96;71.92;101808.88;127271;1092;105031;-79
2020/12/07 02:13:18;;;;;;;29.13;10.03;;;;;;;-3.02;72.25;101811.70;126888;1093;104563;-79
2020/12/07 02:15:48;;;;;;;26.57;8.97;;;;;;;-2.99;72.71;101806.90;126842;1095;104504;-78
2020/12/07 02:18:18;;;;;;;28.43;10.90;;;;;;;-3.03;72.60;101802.16;127181;1091;104526;-80
2020/12/07 02:20:49;;;;;;;31.20;10.50;;;;;;;-3.01;72.41;101803.23;127382;1092;104432;-78
2020/12/07 02:23:37;;;;;;;29.53;10.20;;;;;;;-3.05;72.58;101801.08;127282;1092;104615;-80
2020/12/07 02:26:14;;;;;;;26.13;10.40;;;;;;;-3.02;72.28;101800.48;127357;1092;104443;-80
2020/12/07 02:28:44;;;;;;;28.63;11.63;;;;;;;-3.03;72.34;101803.82;127355;1092;104557;-80
2020/12/07 02:31:14;;;;;;;30.93;9.97;;;;;;;-3.03;73.40;101806.39;127385;1093;104496;-78
2020/12/07 02:33:43;;;;;;;24.17;8.40;;;;;;;-3.09;72.75;101812.65;127374;1092;104596;-79
2020/12/07 02:36:13;;;;;;;23.43;8.03;;;;;;;-3.17;72.78;101805.76;126923;1094;104641;-78
2020/12/07 02:38:49;;;;;;;28.57;8.90;;;;;;;-3.20;72.25;101801.95;127360;1091;104430;-78
2020/12/07 02:41:18;;;;;;;25.60;9.23;;;;;;;-3.23;72.72;101811.88;127377;1092;104462;-80
2020/12/07 02:43:48;;;;;;;24.87;8.10;;;;;;;-3.21;72.71;101818.08;127341;1092;104565;-80
2020/12/07 02:46:17;;;;;;;23.50;7.23;;;;;;;-3.19;73.29;101814.05;127392;1092;104452;-79
2020/12/07 02:48:46;;;;;;;26.40;8.97;;;;;;;-3.25;72.57;101819.41;127331;1092;104436;-79
2020/12/07 02:51:16;;;;;;;23.50;7.90;;;;;;;-3.33;73.05;101818.55;127373;1092;104458;-78
2020/12/07 02:53:44;;;;;;;24.30;8.90;;;;;;;-3.37;72.15;101818.94;127367;1092;104497;-80
2020/12/07 02:56:15;;;;;;;23.33;8.57;;;;;;;-3.37;73.10;101824.06;127319;1092;104439;-78
2020/12/07 02:58:51;;;;;;;25.53;8.93;;;;;;;-3.40;73.22;101816.02;127402;1091;104570;-80
2020/12/07 03:01:20;;;;;;;25.63;9.13;;;;;;;-3.42;72.25;101817.52;127344;1091;104455;-79
2020/12/07 03:03:49;;;;;;;27.83;9.67;;;;;;;-3.43;72.44;101823.37;127354;1092;104452;-80
2020/12/07 03:06:18;;;;;;;26.53;9.47;;;;;;;-3.37;72.56;101813.80;127315;1093;104558;-80
2020/12/07 03:08:48;;;;;;;32.13;11.43;;;;;;;-3.31;73.12;101818.72;127395;1092;104510;-80
2020/12/07 03:11:19;;;;;;;31.73;10.87;;;;;;;-3.30;72.59;101810.29;127325;1091;104439;-80
2020/12/07 03:13:48;;;;;;;25.73;7.77;;;;;;;-3.29;72.54;101822.36;127331;1092;104532;-79
2020/12/07 03:16:18;;;;;;;28.47;10.23;;;;;;;-3.34;72.82;101828.64;126958;1093;104628;-79
2020/12/07 03:18:46;;;;;;;26.03;9.90;;;;;;;-3.36;73.29;101823.34;126976;1094;104504;-80
2020/12/07 03:21:18;;;;;;;30.27;11.10;;;;;;;-3.34;73.68;101818.38;127383;1092;104446;-79
2020/12/07 03:23:53;;;;;;;31.60;10.70;;;;;;;-3.39;73.62;101822.99;127365;1091;104442;-80
2020/12/07 03:26:24;;;;;;;23.37;8.37;;;;;;;-3.50;72.64;101813.19;127334;1092;104430;-80
2020/12/07 03:28:53;;;;;;;20.93;7.50;;;;;;;-3.53;72.80;101815.41;127356;1093;104551;-78
2020/12/07 03:31:23;;;;;;;28.20;9.63;;;;;;;-3.61;73.07;101809.41;127397;1092;104554;-79
2020/12/07 03:33:53;;;;;;;26.10;9.50;;;;;;;-3.66;73.03;101811.45;127407;1093;104435;-80
2020/12/07 03:36:25;;;;;;;23.10;8.73;;;;;;;-3.80;72.79;101809.88;127347;1092;104439;-79
2020/12/07 03:38:54;;;;;;;21.27;8.07;;;;;;;-3.95;73.11;101823.52;127358;1091;104436;-78
2020/12/07 03:41:23;;;;;;;23.40;8.83;;;;;;;-3.99;72.92;101824.83;127369;1092;104910;-79
2020/12/07 03:43:54;;;;;;;17.73;6.53;;;;;;;-3.98;73.21;101811.25;127352;1092;104433;-80
2020/12/07 03:46:26;;;;;;;19.33;6.80;;;;;;;-3.97;73.64;101805.39;127383;1091;104448;-81
2020/12/07 03:48:58;;;;;;;21.30;7.53;;;;;;;-3.97;74.03;101807.06;127323;1092;104452;-80
2020/12/07 03:51:30;;;;;;;21.90;8.70;;;;;;;-3.92;73.52;101805.02;127309;1092;104497;-79
2020/12/07 03:53:59;;;;;;;24.00;7.47;;;;;;;-3.85;73.21;101818.72;127390;1092;104436;-79
2020/12/07 03:56:28;;;;;;;17.67;5.63;;;;;;;-3.84;73.58;101802.56;127339;1091;104462;-78
2020/12/07 03:59:03;;;;;;;18.60;6.63;;;;;;;-3.84;73.84;101817.95;127324;1092;104551;-80
2020/12/07 04:01:34;;;;;;;20.47;7.57;;;;;;;-3.82;73.37;101806.24;126852;1095;104954;-80
2020/12/07 04:04:07;;;;;;;21.67;7.03;;;;;;;-3.82;73.75;101807.88;126778;1095;103365;-79
2020/12/07 04:06:40;;;;;;;25.63;8.27;;;;;;;-3.88;73.31;101808.11;126845;1095;104594;-79
2020/12/07 04:09:09;;;;;;;22.90;8.30;;;;;;;-3.87;73.38;101812.48;126841;1095;104487;-77
2020/12/07 04:11:38;;;;;;;18.80;7.07;;;;;;;-3.90;73.74;101806.09;126855;1095;104571;-78
2020/12/07 04:14:08;;;;;;;21.27;7.53;;;;;;;-3.95;74.21;101809.80;126841;1095;104505;-80
2020/12/07 04:16:39;;;;;;;17.30;5.57;;;;;;;-3.98;74.20;101803.56;126809;1096;104608;-80
2020/12/07 04:19:08;;;;;;;16.93;5.13;;;;;;;-3.99;73.70;101806.88;126768;1095;104503;-83
2020/12/07 04:21:37;;;;;;;17.97;5.67;;;;;;;-3.99;73.89;101801.75;126842;1095;104590;-83
2020/12/07 04:24:06;;;;;;;21.03;7.20;;;;;;;-3.93;74.01;101798.05;126765;1095;104503;-81
2020/12/07 04:26:35;;;;;;;20.40;5.90;;;;;;;-3.95;73.48;101799.54;126750;1095;104625;-81
2020/12/07 04:29:04;;;;;;;20.17;7.43;;;;;;;-3.90;74.20;101808.66;126716;1095;104455;-82
2020/12/07 04:31:34;;;;;;;26.87;8.47;;;;;;;-3.94;73.89;101803.91;126866;1095;104609;-79
2020/12/07 04:34:03;;;;;;;27.53;10.30;;;;;;;-3.93;74.22;101795.48;127212;1092;104570;-80
2020/12/07 04:36:34;;;;;;;20.60;6.07;;;;;;;-3.87;74.39;101809.91;127244;1091;104487;-81
2020/12/07 04:39:05;;;;;;;27.80;10.30;;;;;;;-3.91;73.82;101806.83;127232;1092;104433;-83
2020/12/07 04:41:34;;;;;;;30.33;9.83;;;;;;;-3.91;73.94;101799.13;127309;1092;104621;-80
2020/12/07 04:44:03;;;;;;;27.03;8.80;;;;;;;-4.01;74.11;101800.64;126956;1093;104439;-82
2020/12/07 04:46:35;;;;;;;26.03;8.43;;;;;;;-4.07;73.53;101797.38;127233;1092;104503;-81
2020/12/07 04:49:05;;;;;;;31.47;10.10;;;;;;;-4.09;73.51;101803.98;127299;1092;104436;-84
2020/12/07 04:51:34;;;;;;;23.00;8.30;;;;;;;-4.10;74.02;101803.81;127328;1092;104432;-82
2020/12/07 04:54:05;;;;;;;23.93;8.03;;;;;;;-4.11;73.94;101799.41;126938;1094;104448;-82
2020/12/07 04:56:36;;;;;;;26.20;8.90;;;;;;;-4.13;74.48;101803.46;126969;1092;104453;-82
2020/12/07 04:59:05;;;;;;;23.00;8.60;;;;;;;-4.11;73.54;101802.91;127353;1092;104452;-82
2020/12/07 05:01:34;;;;;;;27.57;8.90;;;;;;;-4.12;73.83;101803.64;126857;1093;104656;-81
2020/12/07 05:04:03;;;;;;;17.77;5.33;;;;;;;-4.09;73.65;101803.09;127323;1092;104555;-81
2020/12/07 05:06:32;;;;;;;22.27;7.57;;;;;;;-4.16;74.12;101804.01;127305;1092;104436;-85
2020/12/07 05:09:01;;;;;;;25.83;8.77;;;;;;;-4.22;74.25;101808.47;127336;1092;104503;-83
2020/12/07 05:11:30;;;;;;;23.77;8.33;;;;;;;-4.17;74.49;101802.20;127311;1092;104436;-84
2020/12/07 05:14:04;;;;;;;26.10;9.20;;;;;;;-4.16;73.73;101807.51;127352;1092;104439;-83
2020/12/07 05:16:33;;;;;;;21.70;7.77;;;;;;;-4.16;73.77;101794.69;127280;1092;104731;-84
2020/12/07 05:19:08;;;;;;;21.50;7.97;;;;;;;-4.15;74.16;101803.28;127319;1092;104426;-84
2020/12/07 05:21:35;;;;;;;;;;;;;;;-4.12;73.83;101795.05;127292;1092;104474;-84
2020/12/07 05:24:05;;;;;;;25.87;9.13;;;;;;;-4.08;74.08;101799.77;127299;1092;104455;-84
2020/12/07 05:26:36;;;;;;;19.27;6.60;;;;;;;-4.05;74.17;101795.92;127343;1092;104436;-83
2020/12/07 05:29:08;;;;;;;25.15;8.35;;;;;;;-4.17;73.49;101790.29;127289;1092;104599;-84
2020/12/07 05:32:04;;;;;;;22.70;8.27;;;;;;;-4.29;73.85;101799.13;127234;1092;104435;-83
2020/12/07 05:34:33;;;;;;;22.60;7.80;;;;;;;-4.39;73.87;101797.16;127217;1092;105550;-82
2020/12/07 05:37:02;;;;;;;27.60;10.03;;;;;;;-4.39;74.37;101793.70;127257;1092;104506;-83
2020/12/07 05:39:33;;;;;;;23.67;8.37;;;;;;;-4.34;74.45;101790.91;127275;1092;104500;-84
2020/12/07 05:42:04;;;;;;;25.97;9.60;;;;;;;-4.25;74.39;101795.30;127323;1091;104458;-84
2020/12/07 05:44:39;;;;;;;17.43;5.77;;;;;;;-4.17;74.77;101795.42;126875;1094;104491;-83
2020/12/07 05:47:10;;;;;;;24.83;8.63;;;;;;;-4.18;74.29;101792.67;127276;1092;104445;-83
2020/12/07 05:49:40;;;;;;;26.57;7.83;;;;;;;-4.17;73.94;101795.42;127271;1092;104459;-80
2020/12/07 05:52:09;;;;;;;26.40;8.97;;;;;;;-4.12;74.14;101798.52;127285;1091;104439;-83
2020/12/07 05:54:39;;;;;;;21.33;7.03;;;;;;;-4.17;74.36;101800.55;127324;1092;104727;-82
2020/12/07 05:57:17;;;;;;;18.93;6.13;;;;;;;-4.25;73.81;101802.98;126845;1094;104472;-81
2020/12/07 05:59:54;;;;;;;23.50;8.43;;;;;;;-4.32;74.40;101800.44;127308;1091;104430;-84
2020/12/07 06:02:24;;;;;;;23.27;6.67;;;;;;;-4.29;74.37;101804.25;127249;1092;104519;-82
2020/12/07 06:05:15;;;;;;;21.97;8.03;;;;;;;-4.36;74.35;101807.77;127248;1092;104484;-81
2020/12/07 06:07:53;;;;;;;23.90;8.07;;;;;;;-4.39;74.33;101802.29;126932;1092;103279;-82
2020/12/07 06:10:26;;;;;;;20.67;6.47;;;;;;;-4.37;74.12;101808.49;127260;1092;103605;-81
2020/12/07 06:12:58;;;;;;;22.90;8.10;;;;;;;-4.35;74.52;101799.36;126877;1094;103335;-81
2020/12/07 06:15:30;;;;;;;26.40;9.23;;;;;;;-4.25;74.63;101802.98;127343;1092;104493;-84
2020/12/07 06:17:59;;;;;;;22.80;8.60;;;;;;;-4.18;74.17;101802.94;127292;1092;104446;-81
2020/12/07 06:20:38;;;;;;;20.70;7.40;;;;;;;-4.22;73.92;101781.17;126905;1094;104603;-82
2020/12/07 06:23:17;;;;;;;24.23;8.17;;;;;;;-4.23;73.70;101794.71;126896;1094;104446;-83
2020/12/07 06:25:48;;;;;;;24.43;7.60;;;;;;;-4.19;74.22;101784.09;127311;1092;104334;-80
2020/12/07 06:28:36;;;;;;;25.33;8.43;;;;;;;-4.16;74.01;101786.06;127281;1092;103218;-81
2020/12/07 06:31:16;;;;;;;21.73;7.97;;;;;;;-4.13;73.84;101790.64;127279;1093;104574;-77
2020/12/07 06:33:48;;;;;;;25.27;9.10;;;;;;;-4.11;74.50;101789.16;127330;1092;104435;-80
2020/12/07 06:36:31;;;;;;;25.47;8.27;;;;;;;-4.08;74.37;101780.19;126806;1094;104497;-78
2020/12/07 06:39:03;;;;;;;25.13;8.50;;;;;;;-4.06;74.78;101778.70;127313;1092;104462;-79
2020/12/07 06:41:40;;;;;;;23.20;7.87;;;;;;;-4.08;74.45;101785.31;127327;1092;104558;-80
2020/12/07 06:44:12;;;;;;;23.20;7.63;;;;;;;-4.11;74.66;101784.03;126942;1092;104438;-79
2020/12/07 06:46:57;;;;;;;15.77;5.67;;;;;;;-4.12;74.09;101788.25;127338;1092;104910;-80
2020/12/07 06:49:37;;;;;;;26.53;8.47;;;;;;;-4.23;73.86;101783.56;127314;1091;104497;-78
2020/12/07 06:52:11;;;;;;;20.30;6.83;;;;;;;-4.23;73.85;101792.15;126979;1092;104994;-85
2020/12/07 06:57:28;;;;;;;23.83;7.20;;;;;;;-4.18;74.47;101780.77;127333;1092;104558;-81
2020/12/07 07:00:07;;;;;;;24.13;7.73;;;;;;;-4.18;74.41;101774.73;127255;1092;104496;-81
2020/12/07 07:02:39;;;;;;;22.60;8.30;;;;;;;-4.20;74.31;101783.91;127313;1093;104445;-78
2020/12/07 07:05:09;;;;;;;22.67;7.70;;;;;;;-4.16;74.03;101789.56;127010;1093;104481;-80
2020/12/07 07:07:40;;;;;;;22.17;7.83;;;;;;;-4.10;74.37;101791.00;127346;1092;104471;-82
2020/12/07 07:10:11;;;;;;;22.53;7.40;;;;;;;-4.08;74.39;101790.45;127335;1092;104590;-83
2020/12/07 07:12:43;;;;;;;14.87;4.60;;;;;;;-4.04;74.26;101791.70;127325;1092;104656;-84
2020/12/07 07:15:14;;;;;;;16.67;6.10;;;;;;;-4.11;73.55;101800.34;127236;1092;104455;-84
2020/12/07 07:17:45;;;;;;;20.37;6.33;;;;;;;-4.21;73.57;101800.02;127335;1091;104439;-81
2020/12/07 07:20:16;;;;;;;17.17;6.13;;;;;;;-4.31;73.91;101809.97;127308;1092;104447;-83
2020/12/07 07:22:51;;;;;;;18.23;6.00;;;;;;;-4.42;73.49;101786.56;127333;1091;104433;-84
2020/12/07 07:25:27;;;;;;;19.50;7.10;;;;;;;-4.40;73.79;101797.89;127366;1092;104487;-83
2020/12/07 07:28:05;;;;;;;23.70;8.80;;;;;;;-4.42;74.19;101796.81;126934;1094;104624;-82
2020/12/07 07:30:36;;;;;;;18.97;6.77;;;;;;;-4.37;74.43;101802.47;127354;1092;104497;-84
2020/12/07 07:33:05;;;;;;;19.10;6.33;;;;;;;-4.35;74.10;101803.55;127231;1092;104442;-81
2020/12/07 07:35:34;;;;;;;19.65;6.90;;;;;;;-4.39;74.05;101796.27;127349;1092;104484;-81
2020/12/07 07:38:03;;;;;;;22.77;9.03;;;;;;;-4.33;74.39;101802.09;127346;1093;104478;-79
2020/12/07 07:40:33;;;;;;;23.27;8.20;;;;;;;-4.28;74.28;101794.94;127360;1092;104456;-79
2020/12/07 07:43:03;;;;;;;23.43;8.27;;;;;;;-4.28;73.61;101798.41;127373;1091;104500;-82
2020/12/07 07:45:38;;;;;;;13.00;4.77;;;;;;;-4.28;74.44;101803.53;127358;1092;104439;-81
2020/12/07 07:48:15;;;;;;;21.83;6.73;;;;;;;-4.28;73.99;101800.06;127336;1091;104930;-87
2020/12/07 07:51:02;;;;;;;26.93;9.83;;;;;;;-4.35;73.89;101788.17;127362;1092;105068;-84
2020/12/07 08:15:43;;;;;;;15.70;5.30;;;;;;;-4.09;74.25;101773.23;127299;1092;104452;-83
2020/12/07 08:18:18;;;;;;;17.40;5.90;;;;;;;-4.07;73.89;101756.35;126991;1094;104570;-86
2020/12/07 08:20:53;;;;;;;18.77;6.37;;;;;;;-4.01;73.60;101751.92;126844;1094;104542;-85
2020/12/07 08:23:30;;;;;;;19.63;7.03;;;;;;;-3.93;73.46;101751.89;127323;1091;104423;-81
2020/12/07 08:26:05;;;;;;;18.23;6.13;;;;;;;-4.00;73.69;101738.37;127373;1092;104443;-80
2020/12/07 08:28:40;;;;;;;26.20;8.47;;;;;;;-4.02;73.61;101734.73;126973;1093;104448;-82
2020/12/07 08:31:13;;;;;;;26.40;8.97;;;;;;;-3.92;74.17;101735.78;127226;1093;104426;-85
2020/12/07 08:34:01;;;;;;;23.03;8.20;;;;;;;-3.83;73.65;101737.72;127246;1092;104403;-84
2020/12/07 08:36:33;;;;;;;27.00;8.53;;;;;;;-3.77;73.46;101727.25;126916;1093;104436;-83
2020/12/07 08:39:14;;;;;;;;;;;;;;;-3.70;73.54;101718.58;127309;1092;104339;-83
2020/12/07 08:41:46;;;;;;;18.07;6.70;;;;;;;-3.72;73.35;101713.27;126820;1096;103322;-83
2020/12/07 08:44:20;;;;;;;29.20;9.23;;;;;;;-3.71;73.60;101714.17;126767;1095;104445;-84
2020/12/07 08:46:54;;;;;;;24.75;8.43;;;;;;;-3.72;73.93;101708.14;126750;1096;104477;-82
2020/12/07 08:56:16;;;;;;;26.40;8.60;;;;;;;-3.72;73.37;101708.14;126547;1097;104571;-84
2020/12/07 08:58:50;;;;;;;26.20;10.30;;;;;;;-3.69;73.45;101699.89;126497;1097;103196;-88
2020/12/07 09:01:21;;;;;;;24.47;8.60;;;;;;;-3.65;73.59;101691.77;126494;1097;104554;-87
2020/12/07 09:03:55;;;;;;;27.00;8.50;;;;;;;-3.59;73.65;101700.15;126498;1097;104484;-87
2020/12/07 09:06:46;;;;;;;20.37;7.27;;;;;;;-3.53;72.87;101700.83;126596;1097;104452;-89
2020/12/07 09:09:24;;;;;;;19.97;7.63;;;;;;;-3.52;72.97;101688.91;126535;1099;104923;-84
2020/12/07 09:11:54;;;;;;;16.37;6.13;;;;;;;-3.53;73.54;101695.70;126458;1098;104481;-84
2020/12/07 09:14:24;;;;;;;26.13;9.90;;;;;;;-3.63;72.86;101686.08;126403;1099;105259;-85
2020/12/07 09:16:54;;;;;;;18.30;6.77;;;;;;;-3.64;73.03;101688.48;126512;1098;104747;-87
2020/12/07 09:19:29;;;;;;;22.53;7.23;;;;;;;-3.66;72.68;101690.87;126191;1099;104638;-85
2020/12/07 09:22:01;;;;;;;29.17;9.97;;;;;;;-3.72;73.72;101681.59;126485;1099;104455;-86
2020/12/07 09:24:40;;;;;;;25.37;8.97;;;;;;;-3.74;73.27;101676.29;126615;1097;104455;-79
2020/12/07 09:27:41;;;;;;;;;;;;;;;;;;;;;
2020/12/07 09:30:45;;;;;;;23.47;7.40;;;;;;;-3.93;73.25;101665.61;126498;1099;104456;-86
2020/12/07 09:33:27;;;;;;;30.37;10.00;;;;;;;-4.00;73.37;101674.27;126450;1099;104477;-84
2020/12/07 09:35:58;;;;;;;26.17;9.57;;;;;;;-3.88;73.33;101673.81;126580;1096;104752;-83
2020/12/07 09:38:36;;;;;;;25.43;7.73;;;;;;;-3.88;72.75;101684.08;126647;1097;105112;-85
2020/12/07 09:41:06;;;;;;;27.77;8.50;;;;;;;-3.97;72.84;101669.49;126466;1096;104443;-87
2020/12/07 09:43:37;;;;;;;26.07;9.07;;;;;;;-3.92;73.04;101663.98;126795;1095;104449;-82
2020/12/07 09:46:20;;;;;;;25.27;9.53;;;;;;;-3.86;73.33;101672.36;126535;1096;104443;-86
2020/12/07 09:55:54;;;;;;;27.85;9.70;;;;;;;-3.86;73.23;101660.44;126800;1095;104561;-86
2020/12/07 09:58:24;;;;;;;25.27;8.40;;;;;;;-3.82;73.17;101666.80;126826;1095;104449;-82
2020/12/07 10:01:01;;;;;;;26.43;8.90;;;;;;;-3.83;73.77;101662.44;126844;1095;104596;-84
2020/12/07 10:03:53;;;;;;;19.07;6.73;;;;;;;-3.78;73.28;101661.28;126792;1095;104509;-86
2020/12/07 10:06:34;;;;;;;21.73;6.77;;;;;;;-3.80;73.61;101661.12;126794;1096;104545;-85
2020/12/07 10:09:07;;;;;;;22.83;8.30;;;;;;;-3.79;72.90;101662.02;126795;1095;104573;-87
2020/12/07 10:11:36;;;;;;;24.37;9.10;;;;;;;-3.72;73.34;101661.07;126755;1095;104810;-87
2020/12/07 10:14:08;;;;;;;22.97;8.00;;;;;;;-3.65;73.39;101664.45;126824;1095;104707;-84
2020/12/07 10:16:45;;;;;;;30.87;10.67;;;;;;;-3.78;72.86;101670.65;126916;1095;104571;-84
2020/12/07 10:19:15;;;;;;;30.20;10.77;;;;;;;-3.85;72.76;101669.03;126793;1096;104570;-84
2020/12/07 10:21:45;;;;;;;24.03;8.60;;;;;;;-3.86;73.08;101660.44;126748;1095;104491;-82
2020/12/07 10:24:18;;;;;;;30.33;9.97;;;;;;;-3.87;73.49;101661.16;126789;1095;104391;-87
2020/12/07 10:26:58;;;;;;;32.97;12.17;;;;;;;-3.82;73.78;101661.67;126804;1096;104433;-84
2020/12/07 10:29:29;;;;;;;30.47;10.33;;;;;;;-3.74;73.44;101650.64;126878;1095;104497;-84
2020/12/07 10:32:04;;;;;;;28.90;10.85;;;;;;;-3.65;73.84;101649.06;126786;1095;104684;-82
2020/12/07 10:34:38;;;;;;;28.97;9.47;;;;;;;-3.62;73.00;101641.70;126783;1095;104443;-83
2020/12/07 10:37:10;;;;;;;21.90;8.63;;;;;;;-3.66;72.39;101643.76;126830;1095;104602;-88
2020/12/07 10:39:40;;;;;;;28.53;10.30;;;;;;;-3.73;73.44;101642.17;126770;1095;104459;-89
2020/12/07 10:42:19;;;;;;;27.37;9.03;;;;;;;-3.70;73.10;101634.82;126785;1095;103423;-85
2020/12/07 10:44:48;;;;;;;26.57;9.83;;;;;;;-3.70;72.48;101639.95;126815;1096;104459;-83
2020/12/07 10:47:17;;;;;;;29.63;11.57;;;;;;;-3.76;72.41;101641.84;126803;1096;104615;-82
2020/12/07 10:49:47;;;;;;;30.27;9.93;;;;;;;-3.86;72.70;101636.45;126768;1095;104640;-81
2020/12/07 10:52:21;;;;;;;23.73;8.10;;;;;;;-4.01;72.51;101639.11;126759;1095;104647;-84
2020/12/07 10:54:54;;;;;;;;;;;;;;;-4.02;72.97;101626.11;126889;1095;104494;-81
2020/12/07 10:57:24;;;;;;;25.33;9.10;;;;;;;-3.98;72.68;101626.63;126780;1095;104532;-82
2020/12/07 10:59:56;;;;;;;25.50;8.70;;;;;;;-4.02;72.82;101632.17;126750;1095;104682;-86
2020/12/07 11:02:30;;;;;;;27.50;9.03;;;;;;;-4.13;72.37;101622.35;126818;1095;104507;-83
2020/12/07 11:05:04;;;;;;;29.23;10.53;;;;;;;-4.05;72.84;101625.77;126828;1095;104024;-82
2020/12/07 11:07:35;;;;;;;27.33;8.77;;;;;;;-3.99;73.01;101621.33;126793;1095;104483;-81
2020/12/07 11:10:07;;;;;;;26.67;9.37;;;;;;;-3.99;72.81;101619.70;126794;1096;104481;-83
2020/12/07 11:12:38;;;;;;;27.00;8.90;;;;;;;-4.02;72.52;101618.42;126766;1094;104503;-80
2020/12/07 11:15:08;;;;;;;31.53;10.30;;;;;;;-4.16;72.17;101617.81;126811;1095;104887;-82
2020/12/07 11:17:39;;;;;;;26.00;9.30;;;;;;;-4.27;72.54;101619.90;126832;1096;104622;-88
2020/12/07 11:20:08;;;;;;;23.30;9.17;;;;;;;-4.30;72.71;101612.80;126796;1095;104684;-82
2020/12/07 11:22:44;;;;;;;29.87;10.50;;;;;;;-4.25;72.98;101616.78;126829;1095;104503;-84
2020/12/07 11:25:34;;;;;;;31.23;10.00;;;;;;;-4.22;73.11;101599.19;126844;1095;104467;-81
2020/12/07 11:28:15;;;;;;;30.10;9.93;;;;;;;-4.12;72.47;101602.78;126759;1096;104036;-80
2020/12/07 11:30:44;;;;;;;27.60;10.25;;;;;;;-4.12;72.95;101601.11;126764;1095;104615;-81
2020/12/07 11:33:13;;;;;;;30.70;10.17;;;;;;;-4.01;72.75;101607.44;126825;1095;104557;-83
2020/12/07 11:35:43;;;;;;;27.00;9.53;;;;;;;-3.95;72.62;101605.55;126844;1094;104439;-84
2020/12/07 11:38:15;;;;;;;25.87;9.43;;;;;;;-3.88;73.36;101608.07;126748;1095;104522;-81
2020/12/07 11:40:55;;;;;;;36.47;10.47;;;;;;;-3.86;73.35;101603.11;126758;1095;104436;-81
2020/12/07 11:43:41;;;;;;;25.50;8.67;;;;;;;-3.83;72.54;101603.45;126760;1095;104542;-81
2020/12/07 11:46:27;;;;;;;28.43;11.07;;;;;;;-3.78;72.77;101617.69;126794;1096;103131;-81
2020/12/07 11:48:58;;;;;;;31.40;12.37;;;;;;;-3.73;73.43;101616.52;126776;1095;103259;-81
2020/12/07 11:52:02;;;;;;;32.77;11.40;;;;;;;-3.65;73.41;101617.38;126898;1095;104503;-80
2020/12/07 11:54:51;;;;;;;21.90;7.43;;;;;;;-3.71;72.90;101622.77;126765;1095;104603;-79
2020/12/07 11:57:48;;;;;;;31.85;11.08;;;;;;;-3.79;72.66;101608.16;126844;1095;104735;-84
2020/12/07 12:00:37;;;;;;;27.53;9.17;;;;;;;-3.81;73.09;101617.34;126794;1095;104577;-86
2020/12/07 12:03:12;;;;;;;30.33;10.73;;;;;;;-3.94;73.43;101609.02;126740;1095;104442;-81
2020/12/07 12:05:50;;;;;;;26.93;9.77;;;;;;;-3.95;72.88;101602.99;126778;1094;104455;-82
2020/12/07 12:08:29;;;;;;;26.17;9.47;;;;;;;-3.89;73.04;101597.64;126776;1095;104615;-81
2020/12/07 12:11:01;;;;;;;30.07;10.97;;;;;;;-3.85;73.43;101595.59;126734;1095;104580;-78
2020/12/07 12:13:38;;;;;;;34.57;12.30;;;;;;;-3.80;73.21;101596.99;126802;1095;104609;-82
2020/12/07 12:16:09;;;;;;;24.33;7.80;;;;;;;-3.72;73.87;101596.94;126774;1096;104778;-82
2020/12/07 12:18:42;;;;;;;28.53;10.93;;;;;;;-3.73;73.51;101595.11;126761;1095;104465;-81